createdAt,value
2023-02-13T00:03:10.104Z,0
2023-02-13T00:06:35.260Z,0
2023-02-13T00:10:00.441Z,0
2023-02-13T00:13:25.644Z,0
2023-02-13T00:16:50.787Z,0
2023-02-13T00:20:15.951Z,0
2023-02-13T00:23:41.129Z,0
2023-02-13T00:27:06.333Z,0
2023-02-13T00:30:31.528Z,0
2023-02-13T00:33:56.664Z,0
2023-02-13T00:37:21.867Z,0
2023-02-13T00:40:47.056Z,0
2023-02-13T00:44:12.229Z,0
2023-02-13T00:47:37.436Z,0
2023-02-13T00:51:02.563Z,0
2023-02-13T00:54:27.768Z,0
2023-02-13T00:57:52.931Z,0
2023-02-13T01:01:18.175Z,0
2023-02-13T01:04:43.334Z,0
2023-02-13T01:08:08.479Z,0
2023-02-13T01:11:33.671Z,0
2023-02-13T01:14:58.866Z,0
2023-02-13T01:18:24.060Z,0
2023-02-13T01:21:49.263Z,0
2023-02-13T01:25:14.409Z,0
2023-02-13T01:28:39.666Z,0
2023-02-13T01:32:04.797Z,0
2023-02-13T01:35:29.934Z,0
2023-02-13T01:38:55.159Z,0
2023-02-13T01:42:20.314Z,0
2023-02-13T01:45:45.493Z,0
2023-02-13T01:49:10.667Z,0
2023-02-13T01:52:35.871Z,0
2023-02-13T01:56:01.079Z,0
2023-02-13T01:59:26.233Z,0
2023-02-13T02:02:51.510Z,0
2023-02-13T02:06:16.587Z,0
2023-02-13T02:09:41.734Z,0
2023-02-13T02:13:06.945Z,0
2023-02-13T02:16:32.114Z,0
2023-02-13T02:19:57.295Z,0
2023-02-13T02:23:22.489Z,0
2023-02-13T02:26:47.649Z,0
2023-02-13T02:30:12.885Z,0
2023-02-13T02:33:38.045Z,0
2023-02-13T02:37:03.247Z,0
2023-02-13T02:40:28.423Z,0
2023-02-13T02:43:53.594Z,0
2023-02-13T02:47:18.803Z,0
2023-02-13T02:50:43.949Z,0
2023-02-13T02:54:09.134Z,0
2023-02-13T02:57:34.338Z,0
2023-02-13T03:00:59.961Z,0
2023-02-13T03:04:24.761Z,0
2023-02-13T03:07:49.896Z,0
2023-02-13T03:11:15.076Z,0
2023-02-13T03:14:40.256Z,0
2023-02-13T03:18:05.441Z,0
2023-02-13T03:21:30.666Z,0
2023-02-13T03:24:55.816Z,0
2023-02-13T03:28:21.055Z,0
2023-02-13T03:31:46.202Z,0
2023-02-13T03:35:11.338Z,0
2023-02-13T03:38:36.569Z,0
2023-02-13T03:42:01.732Z,0
2023-02-13T03:45:26.924Z,0
2023-02-13T03:48:52.111Z,0
2023-02-13T03:52:17.285Z,0
2023-02-13T03:55:42.488Z,0
2023-02-13T03:59:07.643Z,0
2023-02-13T04:02:32.930Z,0
2023-02-13T04:05:58.016Z,0
2023-02-13T04:09:23.199Z,0
2023-02-13T04:12:48.408Z,0
2023-02-13T04:16:13.554Z,0
2023-02-13T04:19:38.736Z,0
2023-02-13T04:23:03.923Z,0
2023-02-13T04:26:29.132Z,0
2023-02-13T04:29:54.345Z,0
2023-02-13T04:33:19.504Z,0
2023-02-13T04:36:44.684Z,0
2023-02-13T04:40:09.828Z,0
2023-02-13T04:43:35.010Z,0
2023-02-13T04:47:00.254Z,0
2023-02-13T04:50:25.398Z,0
2023-02-13T04:53:50.596Z,0
2023-02-13T04:57:15.799Z,0
2023-02-13T05:00:40.963Z,0
2023-02-13T05:04:06.206Z,0
2023-02-13T05:07:31.347Z,0
2023-02-13T05:10:56.797Z,0
2023-02-13T05:14:21.707Z,0
2023-02-13T05:17:46.899Z,0
2023-02-13T05:21:12.101Z,0
2023-02-13T05:24:37.255Z,0
2023-02-13T05:28:02.481Z,0
2023-02-13T05:31:27.674Z,0
2023-02-13T05:34:52.858Z,0
2023-02-13T05:38:18.070Z,0
2023-02-13T05:41:43.238Z,0
2023-02-13T05:45:08.415Z,0
2023-02-13T05:48:33.592Z,0
2023-02-13T05:51:58.789Z,0
2023-02-13T05:55:23.982Z,0
2023-02-13T05:58:49.125Z,0
2023-02-13T06:02:14.323Z,0
2023-02-13T06:05:39.469Z,0
2023-02-13T06:09:04.786Z,0
2023-02-13T06:12:30.011Z,0
2023-02-13T06:15:55.211Z,0
2023-02-13T06:19:20.855Z,0
2023-02-13T06:22:46.075Z,0
2023-02-13T06:26:11.244Z,0
2023-02-13T06:29:36.448Z,0
2023-02-13T06:33:01.626Z,0
2023-02-13T06:36:27.461Z,0
2023-02-13T06:39:52.717Z,0
2023-02-13T06:43:17.958Z,0
2023-02-13T06:46:43.385Z,0
2023-02-13T06:50:08.347Z,0
2023-02-13T06:53:33.504Z,0
2023-02-13T06:56:58.679Z,0
2023-02-13T07:00:25.624Z,0
2023-02-13T07:03:49.106Z,0
2023-02-13T07:07:14.209Z,0
2023-02-13T07:10:39.420Z,0
2023-02-13T07:14:04.626Z,0
2023-02-13T07:17:29.804Z,0
2023-02-13T07:20:55.393Z,0
2023-02-13T07:24:20.225Z,0
2023-02-13T07:27:45.438Z,0
2023-02-13T07:31:10.764Z,6
2023-02-13T07:34:35.833Z,6
2023-02-13T07:38:01.136Z,6
2023-02-13T07:41:26.259Z,6
2023-02-13T07:44:51.468Z,6
2023-02-13T07:48:16.644Z,6
2023-02-13T07:51:41.863Z,6
2023-02-13T07:55:07.083Z,6
2023-02-13T07:58:32.232Z,6
2023-02-13T08:01:57.479Z,6
2023-02-13T08:05:22.627Z,6
2023-02-13T08:08:47.836Z,11
2023-02-13T08:12:13.048Z,11
2023-02-13T08:15:38.213Z,11
2023-02-13T08:19:03.385Z,11
2023-02-13T08:22:28.579Z,11
2023-02-13T08:25:55.049Z,11
2023-02-13T08:29:19.007Z,11
2023-02-13T08:32:53.729Z,11
2023-02-13T08:36:10.334Z,11
2023-02-13T08:39:35.572Z,11
2023-02-13T08:43:00.755Z,11
2023-02-13T08:46:26.085Z,11
2023-02-13T08:49:51.202Z,11
2023-02-13T08:53:16.364Z,11
2023-02-13T08:56:41.563Z,11
2023-02-13T09:00:06.787Z,11
2023-02-13T09:03:31.945Z,11
2023-02-13T09:06:57.161Z,11
2023-02-13T09:10:22.362Z,11
2023-02-13T09:13:50.183Z,11
2023-02-13T09:17:18.582Z,11
2023-02-13T09:20:43.838Z,11
2023-02-13T09:24:08.973Z,17
2023-02-13T09:27:34.154Z,17
2023-02-13T09:30:59.429Z,17
2023-02-13T09:34:24.540Z,17
2023-02-13T09:37:49.747Z,23
2023-02-13T09:41:16.922Z,23
2023-02-13T09:44:41.321Z,23
2023-02-13T09:48:06.574Z,23
2023-02-13T09:51:31.768Z,23
2023-02-13T09:54:56.987Z,23
2023-02-13T09:58:22.132Z,23
2023-02-13T10:01:47.388Z,23
2023-02-13T10:05:12.625Z,23
2023-02-13T10:08:37.775Z,17
2023-02-13T10:12:03.044Z,17
2023-02-13T10:15:28.283Z,23
2023-02-13T10:18:53.426Z,23
2023-02-13T10:22:18.616Z,23
2023-02-13T10:25:43.821Z,23
2023-02-13T10:29:09.030Z,23
2023-02-13T10:32:34.205Z,23
2023-02-13T10:35:59.730Z,23
2023-02-13T10:39:24.563Z,23
2023-02-13T10:42:49.744Z,23
2023-02-13T10:46:15.007Z,28
2023-02-13T10:49:40.150Z,28
2023-02-13T10:53:05.344Z,28
2023-02-13T10:56:30.520Z,28
2023-02-13T10:59:55.714Z,34
2023-02-13T11:03:20.943Z,34
2023-02-13T11:06:46.116Z,34
2023-02-13T11:10:11.346Z,34
2023-02-13T11:13:36.511Z,39
2023-02-13T11:17:01.742Z,39
2023-02-13T11:20:26.988Z,45
2023-02-13T11:23:52.150Z,45
2023-02-13T11:27:17.358Z,45
2023-02-13T11:30:42.557Z,45
2023-02-13T11:34:07.747Z,45
2023-02-13T11:37:33.003Z,45
2023-02-13T11:40:58.179Z,45
2023-02-13T11:44:23.380Z,45
2023-02-13T11:47:48.569Z,45
2023-02-13T11:51:13.777Z,45
2023-02-13T11:54:39.208Z,45
2023-02-13T11:58:04.367Z,45
2023-02-13T12:01:29.559Z,45
2023-02-13T12:04:54.732Z,45
2023-02-13T12:08:19.922Z,45
2023-02-13T12:11:45.169Z,45
2023-02-13T12:15:10.538Z,45
2023-02-13T12:18:36.577Z,45
2023-02-13T12:22:00.955Z,45
2023-02-13T12:25:26.165Z,39
2023-02-13T12:28:51.389Z,39
2023-02-13T12:32:16.561Z,39
2023-02-13T12:35:41.727Z,39
2023-02-13T12:39:06.920Z,34
2023-02-13T12:42:32.145Z,34
2023-02-13T12:45:57.414Z,34
2023-02-13T12:49:22.542Z,34
2023-02-13T12:52:48.493Z,28
2023-02-13T12:56:13.725Z,28
2023-02-13T12:59:38.914Z,28
2023-02-13T13:03:04.123Z,28
2023-02-13T13:06:29.291Z,23
2023-02-13T13:09:54.477Z,23
2023-02-13T13:13:19.690Z,23
2023-02-13T13:16:44.931Z,23
2023-02-13T13:20:10.127Z,23
2023-02-13T13:23:35.279Z,23
2023-02-13T13:27:00.492Z,17
2023-02-13T13:30:25.745Z,17
2023-02-13T13:33:50.836Z,17
2023-02-13T13:37:16.059Z,17
2023-02-13T13:40:41.232Z,17
2023-02-13T13:44:06.457Z,17
2023-02-13T13:47:31.640Z,17
2023-02-13T13:50:57.139Z,11
2023-02-13T13:54:22.095Z,17
2023-02-13T13:57:47.283Z,17
2023-02-13T14:01:12.517Z,17
2023-02-13T14:04:37.688Z,17
2023-02-13T14:08:02.904Z,17
2023-02-13T14:11:28.145Z,17
2023-02-13T14:14:53.328Z,17
2023-02-13T14:18:18.516Z,17
2023-02-13T14:21:43.731Z,17
2023-02-13T14:25:08.902Z,17
2023-02-13T14:28:34.146Z,17
2023-02-13T15:07:37.038Z,0
2023-02-13T15:11:02.378Z,6
2023-02-13T15:14:27.569Z,6
2023-02-13T15:17:52.752Z,6
2023-02-13T15:21:17.966Z,0
2023-02-13T15:24:43.364Z,0
2023-02-13T15:28:08.541Z,0
2023-02-13T15:31:33.945Z,0
2023-02-13T15:34:58.916Z,0
2023-02-13T15:38:24.404Z,0
2023-02-13T15:41:49.666Z,0
2023-02-13T15:45:14.791Z,0
2023-02-13T15:48:39.989Z,0
2023-02-13T15:52:05.171Z,0
2023-02-13T15:55:30.391Z,0
2023-02-13T15:58:55.579Z,0
2023-02-13T16:02:20.704Z,0
2023-02-13T16:05:45.909Z,0
2023-02-13T16:09:11.118Z,0
2023-02-13T16:12:36.280Z,0
2023-02-13T16:16:01.602Z,0
2023-02-13T16:19:26.789Z,0
2023-02-13T16:22:51.982Z,0
2023-02-13T16:26:17.169Z,0
2023-02-13T16:29:42.339Z,0
2023-02-13T16:33:30.974Z,0
2023-02-13T16:36:56.080Z,0
2023-02-13T16:40:21.292Z,0
2023-02-13T16:43:46.644Z,0
2023-02-13T16:47:11.890Z,0
2023-02-13T16:50:37.201Z,0
2023-02-13T16:54:02.431Z,0
2023-02-13T16:57:27.634Z,0
2023-02-13T17:00:52.892Z,0
2023-02-13T17:04:18.093Z,0
2023-02-13T17:07:43.301Z,0
2023-02-13T17:11:09.484Z,0
2023-02-13T17:14:50.163Z,0
2023-02-13T17:18:15.474Z,0
2023-02-13T17:21:40.720Z,0
2023-02-13T17:25:06.108Z,0
2023-02-13T17:28:31.244Z,0
2023-02-13T17:31:56.579Z,0
2023-02-13T17:35:21.775Z,0
2023-02-13T17:38:46.989Z,0
2023-02-13T17:42:12.277Z,0
2023-02-13T17:45:37.557Z,0
2023-02-13T17:49:02.773Z,0
2023-02-13T17:52:28.103Z,0
2023-02-13T17:55:53.409Z,0
2023-02-13T17:59:18.809Z,0
2023-02-13T18:02:44.028Z,0
2023-02-13T18:06:09.334Z,0
2023-02-13T18:09:34.616Z,0
2023-02-13T18:13:00.044Z,0
2023-02-13T18:16:25.456Z,0
2023-02-13T18:19:50.668Z,0
2023-02-13T18:23:15.987Z,0
2023-02-13T18:26:41.256Z,0
2023-02-13T18:30:06.625Z,0
2023-02-13T18:33:31.946Z,0
2023-02-13T18:36:57.182Z,0
2023-02-13T18:40:22.545Z,0
2023-02-13T18:43:47.751Z,0
2023-02-13T18:47:13.003Z,0
2023-02-13T18:50:38.272Z,0
2023-02-13T18:54:03.519Z,0
2023-02-13T18:57:28.829Z,0
2023-02-13T19:00:54.123Z,0
2023-02-13T19:04:19.418Z,0
2023-02-13T19:07:44.731Z,0
2023-02-13T19:11:09.988Z,0
2023-02-13T19:14:35.257Z,0
2023-02-13T19:18:00.562Z,0
2023-02-13T19:21:25.811Z,0
2023-02-13T19:24:51.097Z,0
2023-02-13T19:28:16.341Z,0
2023-02-13T19:31:41.763Z,0
2023-02-13T19:35:06.935Z,0
2023-02-13T19:38:32.213Z,0
2023-02-13T19:41:57.506Z,0
2023-02-13T19:45:22.761Z,0
2023-02-13T19:48:48.030Z,0
2023-02-13T19:52:13.372Z,0
2023-02-13T19:55:38.723Z,0
2023-02-13T19:59:04.005Z,0
2023-02-13T20:02:29.305Z,0
2023-02-13T20:05:54.551Z,0
2023-02-13T20:09:19.839Z,0
2023-02-13T20:12:45.094Z,0
2023-02-13T20:16:10.456Z,0
2023-02-13T20:19:35.598Z,0
2023-02-13T20:23:00.779Z,0
2023-02-13T20:26:25.940Z,0
2023-02-13T20:29:51.524Z,0
2023-02-13T20:33:16.506Z,0
2023-02-13T20:36:41.623Z,0
2023-02-13T20:40:06.781Z,0
2023-02-13T20:43:32.007Z,0
2023-02-13T20:46:57.151Z,0
2023-02-13T20:50:22.401Z,0
2023-02-13T20:53:47.549Z,0
2023-02-13T20:57:13.916Z,0
2023-02-13T21:00:37.924Z,0
2023-02-13T21:04:03.088Z,0
2023-02-13T21:07:30.366Z,0
2023-02-13T21:10:53.945Z,0
2023-02-13T21:14:19.827Z,0
2023-02-13T21:17:45.536Z,0
2023-02-13T21:21:11.035Z,0
2023-02-13T21:24:36.494Z,0
2023-02-13T21:28:01.632Z,0
2023-02-13T21:31:26.964Z,0
2023-02-13T21:34:51.980Z,0
2023-02-13T21:38:17.198Z,0
2023-02-13T21:41:42.404Z,0
2023-02-13T21:45:07.535Z,0
2023-02-13T21:48:32.698Z,0
2023-02-13T21:51:57.873Z,0
2023-02-13T21:55:23.050Z,0
2023-02-13T21:58:48.244Z,0
2023-02-13T22:02:13.551Z,0
2023-02-13T22:05:38.571Z,0
2023-02-13T22:09:03.739Z,0
2023-02-13T22:12:28.900Z,0
2023-02-13T22:15:54.103Z,0
2023-02-13T22:19:19.261Z,0
2023-02-13T22:22:44.431Z,0
2023-02-13T22:26:09.596Z,0
2023-02-13T22:29:34.783Z,0
2023-02-13T22:32:59.985Z,0
2023-02-13T22:36:25.111Z,0
2023-02-13T22:39:50.324Z,0
2023-02-13T22:43:15.499Z,0
2023-02-13T22:46:40.874Z,0
2023-02-13T22:50:05.900Z,0
2023-02-13T22:53:31.042Z,0
2023-02-13T22:56:56.203Z,0
2023-02-13T23:00:21.390Z,0
2023-02-13T23:03:46.598Z,0
2023-02-13T23:07:11.775Z,0
2023-02-13T23:10:36.911Z,0
2023-02-13T23:14:02.082Z,0
2023-02-13T23:17:27.265Z,0
2023-02-13T23:20:52.448Z,0
2023-02-13T23:24:17.661Z,0
2023-02-13T23:27:42.806Z,0
2023-02-13T23:31:08.019Z,0
2023-02-13T23:34:33.139Z,0
2023-02-13T23:37:58.339Z,0
2023-02-13T23:41:23.564Z,0
2023-02-13T23:44:48.690Z,0
2023-02-13T23:48:13.871Z,0
2023-02-13T23:51:39.046Z,0
2023-02-13T23:55:04.209Z,0
2023-02-13T23:58:29.410Z,0
